Cic Pride — H9SQ — position and weather

sailwx.info

Track history (hours):
 
Tides and Currents Weather Stations Pressure Air Temp Water Temp Dewpoint Dewpoint Depression Visibility Wind Speed Wind Dir Waves Ship Positions

Cic Pride

Last reported at 2014-Jul-14 06:23 UTC. Time now 2014-Jul-30 21:20 UTC.
Position S 33°46' E 027°19'.
Warning: this ship's position is 16 days out of date.

Length 288 m; draft 17.8 m.

Type: Cargo ship. MMSI: 351111000.

Date/timePositionNaut miles runAvg speedWind from/ knotsBaromVisibWave heightAir tempDewpointWater temp
2014-Jul-14 06:23S 33°46' E 027°19'41110.9
2014-Jul-12 16:31S 34°43' E 019°07'1010.5
2014-Jul-12 15:33S 34°39' E 018°55'1110.5
2014-Jul-12 14:33S 34°36' E 018°43'1110.5
2014-Jul-12 13:33S 34°31' E 018°31'9 9.4
2014-Jul-12 12:34S 34°26' E 018°22'1210.2
2014-Jul-12 11:25S 34°16' E 018°16'1111.2
2014-Jul-12 10:26S 34°05' E 018°12'1310.1
2014-Jul-12 09:08S 33°52' E 018°13'2 2.4
2014-Jul-12 08:17S 33°50' E 018°12'1 0.8
2014-Jul-12 07:32S 33°50' E 018°12'16 8.0
2014-Jul-12 05:30S 33°37' E 018°00'  
Track history (hours):
 
Tides and Currents Weather Stations Pressure Air Temp Water Temp Dewpoint Dewpoint Depression Visibility Wind Speed Wind Dir Waves Ship Positions

Cic Pride

Last reported at 2014-Jul-14 06:23 UTC. Time now 2014-Jul-30 21:20 UTC.
Position S 33°46' E 027°19'.
Warning: this ship's position is 16 days out of date.

Length 288 m; draft 17.8 m.

Type: Cargo ship. MMSI: 351111000.

Date/timePositionNaut miles runAvg speedWind from/ knotsBaromVisibWave heightAir tempDewpointWater temp
2014-Jul-14 06:23S 33°46' E 027°19'41110.9
2014-Jul-12 16:31S 34°43' E 019°07'1010.5
2014-Jul-12 15:33S 34°39' E 018°55'1110.5
2014-Jul-12 14:33S 34°36' E 018°43'1110.5
2014-Jul-12 13:33S 34°31' E 018°31'9 9.4
2014-Jul-12 12:34S 34°26' E 018°22'1210.2
2014-Jul-12 11:25S 34°16' E 018°16'1111.2
2014-Jul-12 10:26S 34°05' E 018°12'1310.1
2014-Jul-12 09:08S 33°52' E 018°13'2 2.4
2014-Jul-12 08:17S 33°50' E 018°12'1 0.8
2014-Jul-12 07:32S 33°50' E 018°12'16 8.0
2014-Jul-12 05:30S 33°37' E 018°00'  

Dump ship's entire track history